»·PEaware :: UAL1399 KEUG-KSEA

UAL1399 :: KEUG-KSEA

FLIGHT INFORMATION

Flight Status: Arrived
Operator:
United Airlines
More flights by this operator :: More flights under this callsign
Pilot: David C. (16084)
Aircraft: AIRBUS A320
(A320)
More flights by this aircraft type
Origin: KEUG Mahlon Sweet
United States
Destination: KSEA Seattle-Tacoma Intl
United States
More flights between these airports :: More routes between these airports
Route: +PORTL BTG HAWKZ7
File this flight plan on PilotEdge
Remarks:
Altitude:
(Current/Filed)
28,000ft
Speed:
(Current/Filed)
490kts
Departed: 19-Sep-18 11:41 AM
Arrived: 19-Sep-18 12:49 PM
Distance/Time
Traveled:
203nm/1:07
Distance/Time
To Go:
Arrived

Flight Plot

Page will automatically refresh every two minutes.

Flight plan parsing failed; only flown route is shown


Map Options




Map Legend


Flown Route
Filed Route
Departure Airport
Arrival Airport
Navaid (VOR, NDB)
Fix

Horizontal Profiles

Position Reports

Time Latitude Longitude Heading Altitude Ground
Speed
19-Sep-18 11:02 44.120131 -123.213473 238 383ft 0kts
19-Sep-18 11:03 44.120131 -123.213473 238 383ft 0kts
19-Sep-18 11:04 44.120131 -123.213473 238 383ft 0kts
19-Sep-18 11:05 44.120131 -123.213473 238 383ft 0kts
19-Sep-18 11:06 44.120131 -123.213473 238 383ft 0kts
19-Sep-18 11:07 44.120131 -123.213473 238 383ft 0kts
19-Sep-18 11:08 44.120131 -123.213473 238 383ft 0kts
19-Sep-18 11:09 44.120131 -123.213473 238 383ft 0kts
19-Sep-18 11:10 44.120131 -123.213473 238 383ft 0kts
19-Sep-18 11:11 44.120131 -123.213473 238 383ft 0kts
19-Sep-18 11:12 44.120131 -123.213473 238 383ft 0kts
19-Sep-18 11:13 44.120131 -123.213473 238 383ft 0kts
19-Sep-18 11:14 44.120131 -123.213473 238 383ft 0kts
19-Sep-18 11:15 44.120131 -123.213473 238 383ft 0kts
19-Sep-18 11:16 44.120131 -123.213473 238 383ft 0kts
19-Sep-18 11:17 44.120131 -123.213473 238 383ft 0kts
19-Sep-18 11:18 44.120131 -123.213473 238 383ft 0kts
19-Sep-18 11:19 44.120131 -123.213473 238 383ft 0kts
19-Sep-18 11:20 44.120131 -123.213473 238 383ft 0kts
19-Sep-18 11:21 44.120131 -123.213473 238 383ft 0kts
19-Sep-18 11:22 44.120131 -123.213473 238 383ft 0kts
19-Sep-18 11:23 44.120131 -123.213473 238 383ft 0kts
19-Sep-18 11:24 44.120131 -123.213473 238 383ft 0kts
19-Sep-18 11:25 44.120131 -123.213473 238 383ft 0kts
19-Sep-18 11:26 44.120143 -123.213443 238 383ft 2kts
19-Sep-18 11:27 44.120456 -123.212783 235 383ft 0kts
19-Sep-18 11:28 44.120481 -123.212706 258 383ft 0kts
19-Sep-18 11:29 44.120481 -123.212706 258 383ft 0kts
19-Sep-18 11:30 44.120481 -123.212706 258 383ft 0kts
19-Sep-18 11:31 44.120481 -123.212706 258 383ft 0kts
19-Sep-18 11:32 44.120481 -123.212706 258 383ft 0kts
19-Sep-18 11:33 44.120480 -123.212713 258 383ft 0kts
19-Sep-18 11:34 44.120480 -123.212713 258 383ft 0kts
19-Sep-18 11:35 44.120480 -123.212713 258 383ft 0kts
19-Sep-18 11:36 44.120530 -123.213033 299 383ft 6kts
19-Sep-18 11:37 44.123773 -123.216436 328 383ft 13kts
19-Sep-18 11:38 44.128643 -123.217105 359 383ft 20kts
19-Sep-18 11:39 44.134276 -123.217214 359 383ft 15kts
19-Sep-18 11:40 44.135291 -123.217750 278 383ft 0kts
19-Sep-18 11:41 44.135291 -123.217750 278 383ft 0kts
19-Sep-18 11:42 44.135198 -123.218871 232 383ft 8kts
19-Sep-18 11:43 44.110747 -123.218763 180 1071ft 169kts
19-Sep-18 11:44 44.057383 -123.218975 180 3787ft 216kts
19-Sep-18 11:45 43.996208 -123.216870 160 6914ft 230kts
19-Sep-18 11:46 43.988284 -123.144723 35 9355ft 249kts
19-Sep-18 11:47 44.055880 -123.094994 24 11887ft 293kts
19-Sep-18 11:48 44.129182 -123.042783 23 14987ft 304kts
19-Sep-18 11:49 44.204859 -122.988050 23 17736ft 314kts
19-Sep-18 11:50 44.283328 -122.930979 22 20189ft 325kts
19-Sep-18 11:51 44.364513 -122.871720 22 22392ft 336kts
19-Sep-18 11:52 44.448257 -122.810390 21 24422ft 346kts
19-Sep-18 11:53 44.534296 -122.747172 21 26241ft 355kts
19-Sep-18 11:54 44.625761 -122.705895 358 27880ft 349kts
19-Sep-18 11:55 44.725497 -122.696092 359 28249ft 384kts
19-Sep-18 11:56 44.757709 -122.692839 359 28248ft 397kts
19-Sep-18 11:57 44.760489 -122.692558 359 28247ft 398kts
19-Sep-18 11:58 45.051127 -122.663182 0 28257ft 447kts
19-Sep-18 11:59 45.173696 -122.650707 0 28259ft 452kts
19-Sep-18 12:00 45.298917 -122.637913 0 28272ft 452kts
19-Sep-18 12:01 45.423084 -122.625164 0 28259ft 452kts
19-Sep-18 12:02 45.547759 -122.612305 0 28243ft 451kts
19-Sep-18 12:03 45.672079 -122.599423 0 28215ft 450kts
19-Sep-18 12:04 45.795864 -122.603297 347 27283ft 446kts
19-Sep-18 12:05 45.918097 -122.633642 347 26300ft 449kts
19-Sep-18 12:06 46.041026 -122.664185 347 25334ft 453kts
19-Sep-18 12:07 46.164581 -122.691325 349 24380ft 454kts
19-Sep-18 12:08 46.285165 -122.715249 349 23438ft 448kts
19-Sep-18 12:09 46.409134 -122.725352 355 22455ft 445kts
19-Sep-18 12:10 46.530840 -122.729770 355 21126ft 433kts
19-Sep-18 12:11 46.647864 -122.734034 356 19234ft 400kts
19-Sep-18 12:12 46.751735 -122.737863 356 18432ft 351kts
19-Sep-18 12:13 46.835232 -122.678964 36 16868ft 344kts
19-Sep-18 12:14 46.908967 -122.594626 35 15314ft 328kts
19-Sep-18 12:15 46.985553 -122.541043 14 14136ft 306kts
19-Sep-18 12:16 47.066567 -122.505784 15 12584ft 305kts
19-Sep-18 12:17 47.148230 -122.487792 5 11097ft 300kts
19-Sep-18 12:18 47.229386 -122.473933 3 9667ft 293kts
19-Sep-18 12:19 47.309081 -122.461891 4 8335ft 283kts
19-Sep-18 12:20 47.383137 -122.455315 358 7541ft 259kts
19-Sep-18 12:21 47.453522 -122.455331 358 6444ft 252kts
19-Sep-18 12:22 47.519940 -122.455461 358 6030ft 232kts
19-Sep-18 12:23 47.584395 -122.456144 358 5003ft 230kts
19-Sep-18 12:24 47.645703 -122.456779 358 4038ft 198kts
19-Sep-18 12:25 47.699490 -122.457360 358 4025ft 194kts
19-Sep-18 12:26 47.728929 -122.406774 86 4011ft 192kts
19-Sep-18 12:27 47.726402 -122.330004 127 4013ft 195kts
19-Sep-18 12:28 47.677269 -122.309240 180 4008ft 192kts
19-Sep-18 12:29 47.627994 -122.309454 181 3676ft 171kts
19-Sep-18 12:30 47.581601 -122.309899 181 2727ft 168kts
19-Sep-18 12:31 47.535665 -122.310324 181 1863ft 167kts
19-Sep-18 12:32 47.490544 -122.310738 181 996ft 147kts
19-Sep-18 12:33 47.453304 -122.310934 180 747ft 180kts
19-Sep-18 12:34 47.392744 -122.312872 182 1144ft 234kts
19-Sep-18 12:35 47.326376 -122.313914 181 3996ft 245kts
19-Sep-18 12:36 47.291689 -122.380837 276 4021ft 243kts
19-Sep-18 12:37 47.316284 -122.467232 342 4028ft 244kts
19-Sep-18 12:38 47.383370 -122.462706 7 4026ft 243kts
19-Sep-18 12:39 47.450367 -122.449609 7 4024ft 244kts
19-Sep-18 12:40 47.516663 -122.436566 7 4024ft 244kts
19-Sep-18 12:41 47.582979 -122.423523 7 4023ft 244kts
19-Sep-18 12:42 47.650086 -122.410476 7 4023ft 244kts
19-Sep-18 12:43 47.705983 -122.384601 65 4033ft 200kts
19-Sep-18 12:44 47.695539 -122.314060 160 4013ft 189kts
19-Sep-18 12:45 47.645849 -122.309496 181 3908ft 183kts
19-Sep-18 12:46 47.599934 -122.309865 181 3127ft 179kts
19-Sep-18 12:47 47.550622 -122.310276 181 2165ft 164kts
19-Sep-18 12:48 47.510274 -122.310607 181 1382ft 141kts
19-Sep-18 12:49 47.471682 -122.310944 180 642ft 140kts
19-Sep-18 12:50 47.443608 -122.311191 178 442ft 44kts
19-Sep-18 12:51 47.439628 -122.309318 148 442ft 4kts
19-Sep-18 12:52 47.439131 -122.306744 64 442ft 0kts
19-Sep-18 12:53 47.439730 -122.306103 51 442ft 13kts
19-Sep-18 12:54 47.439870 -122.300159 120 442ft 7kts

Navigation Log

Ident Type
Flight plan parsing failed, navigation log unavailable